• Join FlightAware (Why Join?)
  • Login
  • US Flag GB Flag 
17:06 EST


 

Airport Tracker/Info


-or-


 

Live Flight TrackerFlight Track Log ✈ EJA922 ✈ 18-Jan-2014 ✈ KSJC - KPSP

Flight Track Log - Related Links

Times and Time Zones

All times are in EST time to prevent confusion due to time zone crossing. See the EJA922 flight status page for this flight to view local times or setup timezone preferences in your user account.

Time Position Orientation Groundspeed Altitude Reporting Facility
EST Latitude Longitude Course Direction KTS MPH feet Rate Location/Type
12:34 37.4000 -121.9667 141° Southeast 198 228 3,500  Level Northern Cal TRACON
12:35 37.4333 -121.9333 38° Northeast 228 262 5,000 1,320 Climbing Northern Cal TRACON
12:37 37.3367 -121.7978 132° Southeast 259 298 8,000 1,680 Climbing Oakland Center
12:38 37.2747 -121.7275 138° Southeast 296 341 10,700 2,820 Climbing Oakland Center
12:39 37.0283 -121.3774 141° Southeast  Level Estimated
12:39 37.1842 -121.6267 138° Southeast 361 415 13,900  Level Oakland Center
12:40 37.1069 -121.5394 138° Southeast 373 429 16,600 2,220 Climbing Oakland Center
12:41 37.0289 -121.4547 139° Southeast 383 441 18,500 2,040 Climbing Oakland Center
12:42 36.9442 -121.3633 139° Southeast 398 458 20,800 2,220 Climbing Oakland Center
12:43 36.8578 -121.2683 139° Southeast 410 472 23,100 2,160 Climbing Oakland Center
12:44 36.7667 -121.1714 140° Southeast 424 488 25,300 1,980 Climbing Oakland Center
12:45 36.6742 -121.0736 140° Southeast 434 499 27,200 1,800 Climbing Oakland Center
12:46 36.5786 -120.9683 138° Southeast 457 526 29,000 1,500 Climbing Oakland Center
12:47 36.4561 -120.8369 139° Southeast 487 560 30,300 960 Climbing Oakland Center
12:49 36.3486 -120.7219 139° Southeast 506 582 31,000 300 Climbing Oakland Center
12:50 36.2467 -120.5839 132° Southeast 537 618 31,000  Level Oakland Center
12:51 36.1567 -120.4342 127° Southeast 541 623 31,000  Level Oakland Center
12:52 36.0656 -120.2850 127° Southeast 542 624 31,000  Level Oakland Center
12:53 35.9719 -120.1389 128° Southeast 541 623 31,000  Level Oakland Center
12:54 35.8792 -119.9897 127° Southeast 543 625 31,000  Level Oakland Center
12:55 35.7864 -119.8406 127° Southeast 545 627 31,000  Level Oakland Center
12:56 35.6911 -119.6922 128° Southeast 548 631 31,000  Level Oakland Center
12:57 35.5975 -119.5442 128° Southeast 547 629 31,000  Level Oakland Center
12:58 35.5025 -119.3964 128° Southeast 549 632 31,000  Level Oakland Center
12:59 35.4081 -119.2483 128° Southeast 549 632 31,000  Level Oakland Center
13:00 35.2944 -119.0725 128° Southeast 547 629 31,000 -60 Level Los Angeles Center
13:01 35.1992 -118.9261 129° Southeast 548 631 30,900 -60 Descending Los Angeles Center
13:02 35.0856 -118.7506 128° Southeast 550 633 30,900  Level Los Angeles Center
13:03 34.9903 -118.6047 129° Southeast 550 633 30,900 -1,140 Level Los Angeles Center
13:04 34.9036 -118.4728 129° Southeast 543 625 28,600 -2,820 Descending Los Angeles Center
13:05 34.7919 -118.3031 129° Southeast 536 617 25,100 -2,760 Descending Los Angeles Center
13:06 34.7064 -118.1747 129° Southeast 492 566 23,000 -1,980 Descending Los Angeles Center
13:07 34.6281 -118.0550 128° Southeast 454 522 21,100 -1,500 Descending Los Angeles Center
13:08 34.5669 -117.9225 119° Southeast 451 519 20,000 -540 Descending Los Angeles Center
13:09 34.5056 -117.7911 120° Southeast 447 514 20,000  Level Los Angeles Center
13:10 34.4450 -117.6567 119° Southeast 452 520 20,000 -360 Level Los Angeles Center
13:11 34.3828 -117.5228 119° Southeast 453 521 19,300 -1,380 Descending Los Angeles Center
13:12 34.3106 -117.3681 119° Southeast 441 507 17,200 -1,320 Descending Los Angeles Center
13:13 34.2539 -117.2453 119° Southeast 423 487 16,600 -1,260 Descending Los Angeles Center
13:14 34.2000 -117.1292 119° Southeast 403 464 14,600 -1,260 Descending Los Angeles Center
13:15 34.1494 -117.0203 119° Southeast 382 440 14,000 -420 Descending Los Angeles Center
13:16 34.1167 -116.9500 119° Southeast 321 369 14,000  Level Southern California TRACON
13:17 34.0833 -116.8667 116° Southeast 306 352 14,000  Level Southern California TRACON
13:18 34.0333 -116.7833 126° Southeast 302 348 14,000 -300 Level Southern California TRACON
13:19 34.0194 -116.7403 111° Southeast 301 346 13,600 -1,980 Descending Los Angeles Center
13:20 33.9828 -116.6644 120° Southeast 275 316 11,000 -2,400 Descending Los Angeles Center
13:21 33.9511 -116.5958 119° Southeast 248 285 8,700 -1,740 Descending Los Angeles Center
13:22 33.9239 -116.5431 122° Southeast 202 232 7,400 -1,620 Descending Los Angeles Center
13:24 33.8500 -116.4500 134° Southeast 151 174 3,300 -1,680 Descending Southern California TRACON
13:25 33.8000 -116.4333 165° South 149 171 1,700 -1,200 Descending Southern California TRACON
13:26 33.8000 -116.4833 270° West 134 154 900 -840 Descending Southern California TRACON
13:28 33.8167 -116.5000 239° Southwest  Level FlightAware Approximate
13:35 33.8297 -116.5067 239° Southwest  Level Estimated
13:36 33.8297 -116.5067 239° Southwest  Level Estimated